sensor_id;sensor_type;location;lat;lon;timestamp;temperature;humidity
13808;DHT22;40769;51.512;5.494;2023-07-02T00:00:59;20.40;99.90
13808;DHT22;40769;51.512;5.494;2023-07-02T00:03:25;20.40;99.90
13808;DHT22;40769;51.512;5.494;2023-07-02T00:05:51;20.40;99.90
13808;DHT22;40769;51.512;5.494;2023-07-02T00:08:21;20.30;99.90
13808;DHT22;40769;51.512;5.494;2023-07-02T00:10:47;20.30;99.90
13808;DHT22;40769;51.512;5.494;2023-07-02T00:13:12;20.30;99.90
13808;DHT22;40769;51.512;5.494;2023-07-02T00:15:38;20.20;99.90
13808;DHT22;40769;51.512;5.494;2023-07-02T00:18:04;20.20;99.90
13808;DHT22;40769;51.512;5.494;2023-07-02T00:20:29;20.20;99.90
13808;DHT22;40769;51.512;5.494;2023-07-02T00:22:55;20.20;99.90
13808;DHT22;40769;51.512;5.494;2023-07-02T00:25:21;20.20;99.90
13808;DHT22;40769;51.512;5.494;2023-07-02T00:27:47;20.20;99.90
13808;DHT22;40769;51.512;5.494;2023-07-02T00:30:13;20.20;99.90
13808;DHT22;40769;51.512;5.494;2023-07-02T00:32:39;20.20;99.90
13808;DHT22;40769;51.512;5.494;2023-07-02T00:35:05;20.30;99.90
13808;DHT22;40769;51.512;5.494;2023-07-02T00:37:30;20.30;99.90
13808;DHT22;40769;51.512;5.494;2023-07-02T00:39:57;20.30;99.90
13808;DHT22;40769;51.512;5.494;2023-07-02T00:42:23;20.30;99.90
13808;DHT22;40769;51.512;5.494;2023-07-02T00:44:49;20.30;99.90
13808;DHT22;40769;51.512;5.494;2023-07-02T00:47:17;20.30;99.90
13808;DHT22;40769;51.512;5.494;2023-07-02T00:49:43;20.30;99.90
13808;DHT22;40769;51.512;5.494;2023-07-02T00:52:09;20.30;99.90
13808;DHT22;40769;51.512;5.494;2023-07-02T00:54:36;20.30;99.90
13808;DHT22;40769;51.512;5.494;2023-07-02T00:57:02;20.30;99.90
13808;DHT22;40769;51.512;5.494;2023-07-02T00:59:30;20.30;99.90
13808;DHT22;40769;51.512;5.494;2023-07-02T01:01:56;20.30;99.90
13808;DHT22;40769;51.512;5.494;2023-07-02T01:04:22;20.30;99.90
13808;DHT22;40769;51.512;5.494;2023-07-02T01:06:53;20.30;99.90
13808;DHT22;40769;51.512;5.494;2023-07-02T01:09:23;20.40;99.90
13808;DHT22;40769;51.512;5.494;2023-07-02T01:11:59;20.40;99.90
13808;DHT22;40769;51.512;5.494;2023-07-02T01:14:36;20.40;99.90
13808;DHT22;40769;51.512;5.494;2023-07-02T01:17:03;20.50;99.90
13808;DHT22;40769;51.512;5.494;2023-07-02T01:19:45;20.50;99.90
13808;DHT22;40769;51.512;5.494;2023-07-02T01:22:21;20.50;99.90
13808;DHT22;40769;51.512;5.494;2023-07-02T01:24:47;20.50;99.90
13808;DHT22;40769;51.512;5.494;2023-07-02T01:27:14;20.50;99.90
13808;DHT22;40769;51.512;5.494;2023-07-02T01:29:41;20.50;99.90
13808;DHT22;40769;51.512;5.494;2023-07-02T01:32:07;20.50;99.90
13808;DHT22;40769;51.512;5.494;2023-07-02T01:34:34;20.60;99.90
13808;DHT22;40769;51.512;5.494;2023-07-02T01:37:00;20.60;99.90
13808;DHT22;40769;51.512;5.494;2023-07-02T01:39:26;20.50;99.90
13808;DHT22;40769;51.512;5.494;2023-07-02T01:42:06;20.50;99.90
13808;DHT22;40769;51.512;5.494;2023-07-02T01:44:32;20.40;99.90
13808;DHT22;40769;51.512;5.494;2023-07-02T01:46:58;20.40;99.90
13808;DHT22;40769;51.512;5.494;2023-07-02T01:49:24;20.30;99.90
13808;DHT22;40769;51.512;5.494;2023-07-02T01:51:54;20.30;99.90
13808;DHT22;40769;51.512;5.494;2023-07-02T01:54:20;20.30;99.90
13808;DHT22;40769;51.512;5.494;2023-07-02T01:56:46;20.20;99.90
13808;DHT22;40769;51.512;5.494;2023-07-02T01:59:12;20.20;99.90
13808;DHT22;40769;51.512;5.494;2023-07-02T02:01:38;20.20;99.90
13808;DHT22;40769;51.512;5.494;2023-07-02T02:04:08;20.10;99.90
13808;DHT22;40769;51.512;5.494;2023-07-02T02:06:35;20.10;99.90
13808;DHT22;40769;51.512;5.494;2023-07-02T02:09:01;20.00;99.90
13808;DHT22;40769;51.512;5.494;2023-07-02T02:11:30;20.00;99.90
13808;DHT22;40769;51.512;5.494;2023-07-02T02:13:57;20.00;99.90
13808;DHT22;40769;51.512;5.494;2023-07-02T02:16:22;20.00;99.90
13808;DHT22;40769;51.512;5.494;2023-07-02T02:18:48;19.90;99.90
13808;DHT22;40769;51.512;5.494;2023-07-02T02:21:17;19.90;99.90
13808;DHT22;40769;51.512;5.494;2023-07-02T02:23:43;19.80;99.90
13808;DHT22;40769;51.512;5.494;2023-07-02T02:26:09;19.70;99.90
13808;DHT22;40769;51.512;5.494;2023-07-02T02:28:34;19.60;99.90
13808;DHT22;40769;51.512;5.494;2023-07-02T02:31:00;19.60;99.90
13808;DHT22;40769;51.512;5.494;2023-07-02T02:33:26;19.50;99.90
13808;DHT22;40769;51.512;5.494;2023-07-02T02:35:51;19.40;99.90
13808;DHT22;40769;51.512;5.494;2023-07-02T02:38:17;19.40;99.90
13808;DHT22;40769;51.512;5.494;2023-07-02T02:40:43;19.30;99.90
13808;DHT22;40769;51.512;5.494;2023-07-02T02:43:09;19.20;99.90
13808;DHT22;40769;51.512;5.494;2023-07-02T02:45:35;19.20;99.90
13808;DHT22;40769;51.512;5.494;2023-07-02T02:48:00;19.10;99.90
13808;DHT22;40769;51.512;5.494;2023-07-02T02:50:26;19.10;99.90
13808;DHT22;40769;51.512;5.494;2023-07-02T02:52:52;19.00;99.90
13808;DHT22;40769;51.512;5.494;2023-07-02T02:55:18;19.00;99.90
13808;DHT22;40769;51.512;5.494;2023-07-02T02:57:44;19.00;99.90
13808;DHT22;40769;51.512;5.494;2023-07-02T03:00:10;18.90;99.90
13808;DHT22;40769;51.512;5.494;2023-07-02T03:02:37;18.90;99.90
13808;DHT22;40769;51.512;5.494;2023-07-02T03:05:03;18.80;99.90
13808;DHT22;40769;51.512;5.494;2023-07-02T03:07:29;18.70;99.90
13808;DHT22;40769;51.512;5.494;2023-07-02T03:09:55;18.60;99.90
13808;DHT22;40769;51.512;5.494;2023-07-02T03:12:22;18.70;99.90
13808;DHT22;40769;51.512;5.494;2023-07-02T03:14:47;18.60;99.90
13808;DHT22;40769;51.512;5.494;2023-07-02T03:17:17;18.60;99.90
13808;DHT22;40769;51.512;5.494;2023-07-02T03:19:42;18.60;99.90
13808;DHT22;40769;51.512;5.494;2023-07-02T03:22:08;18.50;99.90
13808;DHT22;40769;51.512;5.494;2023-07-02T03:24:34;18.50;99.90
13808;DHT22;40769;51.512;5.494;2023-07-02T03:26:59;18.50;99.90
13808;DHT22;40769;51.512;5.494;2023-07-02T03:29:25;18.40;99.90
13808;DHT22;40769;51.512;5.494;2023-07-02T03:31:51;18.50;99.90
13808;DHT22;40769;51.512;5.494;2023-07-02T03:34:16;18.40;99.90
13808;DHT22;40769;51.512;5.494;2023-07-02T03:36:42;18.50;99.90
13808;DHT22;40769;51.512;5.494;2023-07-02T03:39:09;18.50;99.90
13808;DHT22;40769;51.512;5.494;2023-07-02T03:41:35;18.50;99.90
13808;DHT22;40769;51.512;5.494;2023-07-02T03:44:00;18.60;99.90
13808;DHT22;40769;51.512;5.494;2023-07-02T03:46:26;18.60;99.90
13808;DHT22;40769;51.512;5.494;2023-07-02T03:48:51;18.60;99.90
13808;DHT22;40769;51.512;5.494;2023-07-02T03:51:17;18.70;99.90
13808;DHT22;40769;51.512;5.494;2023-07-02T03:53:43;18.70;99.90
13808;DHT22;40769;51.512;5.494;2023-07-02T03:56:09;18.80;99.90
13808;DHT22;40769;51.512;5.494;2023-07-02T03:58:34;18.80;99.90
13808;DHT22;40769;51.512;5.494;2023-07-02T04:01:00;18.80;99.90
13808;DHT22;40769;51.512;5.494;2023-07-02T04:03:26;18.90;99.90
13808;DHT22;40769;51.512;5.494;2023-07-02T04:05:52;19.00;99.90
13808;DHT22;40769;51.512;5.494;2023-07-02T04:08:18;19.00;99.90
13808;DHT22;40769;51.512;5.494;2023-07-02T04:10:46;19.10;99.90
13808;DHT22;40769;51.512;5.494;2023-07-02T04:13:11;19.10;99.90
13808;DHT22;40769;51.512;5.494;2023-07-02T04:15:37;19.20;99.90
13808;DHT22;40769;51.512;5.494;2023-07-02T04:18:03;19.20;99.90
13808;DHT22;40769;51.512;5.494;2023-07-02T04:20:28;19.30;99.90
13808;DHT22;40769;51.512;5.494;2023-07-02T04:22:54;19.30;99.90
13808;DHT22;40769;51.512;5.494;2023-07-02T04:25:23;19.30;99.90
13808;DHT22;40769;51.512;5.494;2023-07-02T04:27:49;19.40;99.90
13808;DHT22;40769;51.512;5.494;2023-07-02T04:30:14;19.40;99.90
13808;DHT22;40769;51.512;5.494;2023-07-02T04:32:40;19.40;99.90
13808;DHT22;40769;51.512;5.494;2023-07-02T04:35:10;19.40;99.90
13808;DHT22;40769;51.512;5.494;2023-07-02T04:37:36;19.50;99.90
13808;DHT22;40769;51.512;5.494;2023-07-02T04:40:02;19.50;99.90
13808;DHT22;40769;51.512;5.494;2023-07-02T04:42:39;19.40;99.90
13808;DHT22;40769;51.512;5.494;2023-07-02T04:45:05;19.40;99.90
13808;DHT22;40769;51.512;5.494;2023-07-02T04:47:31;19.40;99.90
13808;DHT22;40769;51.512;5.494;2023-07-02T04:49:58;19.40;99.90
13808;DHT22;40769;51.512;5.494;2023-07-02T04:52:26;19.30;99.90
13808;DHT22;40769;51.512;5.494;2023-07-02T04:54:52;19.30;99.90
13808;DHT22;40769;51.512;5.494;2023-07-02T04:57:17;19.20;99.90
13808;DHT22;40769;51.512;5.494;2023-07-02T04:59:43;19.10;99.90
13808;DHT22;40769;51.512;5.494;2023-07-02T05:02:09;19.10;99.90
13808;DHT22;40769;51.512;5.494;2023-07-02T05:04:35;19.00;99.90
13808;DHT22;40769;51.512;5.494;2023-07-02T05:07:03;19.00;99.90
13808;DHT22;40769;51.512;5.494;2023-07-02T05:09:28;19.00;99.90
13808;DHT22;40769;51.512;5.494;2023-07-02T05:11:54;19.00;99.90
13808;DHT22;40769;51.512;5.494;2023-07-02T05:14:20;19.00;99.90
13808;DHT22;40769;51.512;5.494;2023-07-02T05:16:45;19.00;99.90
13808;DHT22;40769;51.512;5.494;2023-07-02T05:19:11;19.00;99.90
13808;DHT22;40769;51.512;5.494;2023-07-02T05:21:37;19.10;99.90
13808;DHT22;40769;51.512;5.494;2023-07-02T05:24:03;19.10;99.90
13808;DHT22;40769;51.512;5.494;2023-07-02T05:26:28;19.10;99.90
13808;DHT22;40769;51.512;5.494;2023-07-02T05:28:54;19.20;99.90
13808;DHT22;40769;51.512;5.494;2023-07-02T05:31:19;19.20;99.90
13808;DHT22;40769;51.512;5.494;2023-07-02T05:33:45;19.30;99.90
13808;DHT22;40769;51.512;5.494;2023-07-02T05:36:11;19.30;99.90
13808;DHT22;40769;51.512;5.494;2023-07-02T05:38:36;19.30;99.90
13808;DHT22;40769;51.512;5.494;2023-07-02T05:41:03;19.40;99.90
13808;DHT22;40769;51.512;5.494;2023-07-02T05:43:29;19.50;99.90
13808;DHT22;40769;51.512;5.494;2023-07-02T05:45:57;19.60;99.90
13808;DHT22;40769;51.512;5.494;2023-07-02T05:48:22;19.70;99.90
13808;DHT22;40769;51.512;5.494;2023-07-02T05:50:48;19.70;99.90
13808;DHT22;40769;51.512;5.494;2023-07-02T05:53:14;19.70;99.90
13808;DHT22;40769;51.512;5.494;2023-07-02T05:55:39;19.70;99.90
13808;DHT22;40769;51.512;5.494;2023-07-02T05:58:07;19.80;99.90
13808;DHT22;40769;51.512;5.494;2023-07-02T06:00:32;19.80;99.90
13808;DHT22;40769;51.512;5.494;2023-07-02T06:02:58;19.90;99.90
13808;DHT22;40769;51.512;5.494;2023-07-02T06:05:23;19.90;99.90
13808;DHT22;40769;51.512;5.494;2023-07-02T06:07:49;20.00;99.90
13808;DHT22;40769;51.512;5.494;2023-07-02T06:10:15;20.10;99.90
13808;DHT22;40769;51.512;5.494;2023-07-02T06:12:40;20.20;99.90
13808;DHT22;40769;51.512;5.494;2023-07-02T06:15:08;20.30;99.90
13808;DHT22;40769;51.512;5.494;2023-07-02T06:17:34;20.40;99.90
13808;DHT22;40769;51.512;5.494;2023-07-02T06:20:03;20.50;99.90
13808;DHT22;40769;51.512;5.494;2023-07-02T06:22:30;20.50;99.90
13808;DHT22;40769;51.512;5.494;2023-07-02T06:24:56;20.70;99.90
13808;DHT22;40769;51.512;5.494;2023-07-02T06:27:21;20.70;99.90
13808;DHT22;40769;51.512;5.494;2023-07-02T06:29:47;20.90;99.90
13808;DHT22;40769;51.512;5.494;2023-07-02T06:32:13;21.10;99.90
13808;DHT22;40769;51.512;5.494;2023-07-02T06:34:39;21.20;99.90
13808;DHT22;40769;51.512;5.494;2023-07-02T06:37:05;21.40;99.90
13808;DHT22;40769;51.512;5.494;2023-07-02T06:39:30;21.60;99.90
13808;DHT22;40769;51.512;5.494;2023-07-02T06:41:56;21.70;99.90
13808;DHT22;40769;51.512;5.494;2023-07-02T06:44:22;21.80;99.90
13808;DHT22;40769;51.512;5.494;2023-07-02T06:46:47;22.00;99.90
13808;DHT22;40769;51.512;5.494;2023-07-02T06:49:13;22.00;99.90
13808;DHT22;40769;51.512;5.494;2023-07-02T06:51:39;22.10;99.90
13808;DHT22;40769;51.512;5.494;2023-07-02T06:54:05;22.20;99.90
13808;DHT22;40769;51.512;5.494;2023-07-02T06:56:31;22.20;99.90
13808;DHT22;40769;51.512;5.494;2023-07-02T06:58:59;22.40;99.90
13808;DHT22;40769;51.512;5.494;2023-07-02T07:01:28;22.40;99.90
13808;DHT22;40769;51.512;5.494;2023-07-02T07:03:57;22.50;99.90
13808;DHT22;40769;51.512;5.494;2023-07-02T07:06:23;22.50;99.90
13808;DHT22;40769;51.512;5.494;2023-07-02T07:08:49;22.60;99.90
13808;DHT22;40769;51.512;5.494;2023-07-02T07:11:15;22.70;99.90
13808;DHT22;40769;51.512;5.494;2023-07-02T07:13:40;22.70;99.90
13808;DHT22;40769;51.512;5.494;2023-07-02T07:16:06;22.80;99.90
13808;DHT22;40769;51.512;5.494;2023-07-02T07:18:32;22.80;99.90
13808;DHT22;40769;51.512;5.494;2023-07-02T07:20:58;22.80;99.90
13808;DHT22;40769;51.512;5.494;2023-07-02T07:23:23;22.90;99.90
13808;DHT22;40769;51.512;5.494;2023-07-02T07:25:49;22.90;99.90
13808;DHT22;40769;51.512;5.494;2023-07-02T07:28:14;23.00;99.90
13808;DHT22;40769;51.512;5.494;2023-07-02T07:30:43;23.20;99.90
13808;DHT22;40769;51.512;5.494;2023-07-02T07:33:10;23.30;99.90
13808;DHT22;40769;51.512;5.494;2023-07-02T07:35:35;23.40;99.90
13808;DHT22;40769;51.512;5.494;2023-07-02T07:38:01;23.40;99.90
13808;DHT22;40769;51.512;5.494;2023-07-02T07:40:27;23.40;99.90
13808;DHT22;40769;51.512;5.494;2023-07-02T07:42:53;23.40;99.90
13808;DHT22;40769;51.512;5.494;2023-07-02T07:45:18;23.40;99.90
13808;DHT22;40769;51.512;5.494;2023-07-02T07:47:44;23.30;99.90
13808;DHT22;40769;51.512;5.494;2023-07-02T07:50:10;23.40;99.90
13808;DHT22;40769;51.512;5.494;2023-07-02T07:52:39;23.40;99.90
13808;DHT22;40769;51.512;5.494;2023-07-02T07:55:08;23.40;99.90
13808;DHT22;40769;51.512;5.494;2023-07-02T07:57:35;23.40;99.90
13808;DHT22;40769;51.512;5.494;2023-07-02T08:00:02;23.40;99.90
13808;DHT22;40769;51.512;5.494;2023-07-02T08:02:29;23.40;99.90
13808;DHT22;40769;51.512;5.494;2023-07-02T08:04:55;23.50;99.90
13808;DHT22;40769;51.512;5.494;2023-07-02T08:07:20;23.20;99.90
13808;DHT22;40769;51.512;5.494;2023-07-02T08:09:47;23.50;99.90
13808;DHT22;40769;51.512;5.494;2023-07-02T08:12:13;23.50;99.90
13808;DHT22;40769;51.512;5.494;2023-07-02T08:14:38;23.70;99.90
13808;DHT22;40769;51.512;5.494;2023-07-02T08:17:04;23.80;99.90
13808;DHT22;40769;51.512;5.494;2023-07-02T08:19:30;24.00;99.90
13808;DHT22;40769;51.512;5.494;2023-07-02T08:21:55;24.10;99.90
13808;DHT22;40769;51.512;5.494;2023-07-02T08:24:21;24.20;99.90
13808;DHT22;40769;51.512;5.494;2023-07-02T08:26:47;24.30;99.90
13808;DHT22;40769;51.512;5.494;2023-07-02T08:29:15;24.30;99.90
13808;DHT22;40769;51.512;5.494;2023-07-02T08:31:41;24.40;99.90
13808;DHT22;40769;51.512;5.494;2023-07-02T08:34:06;24.40;99.90
13808;DHT22;40769;51.512;5.494;2023-07-02T08:36:32;24.40;99.90
13808;DHT22;40769;51.512;5.494;2023-07-02T08:39:01;24.50;99.90
13808;DHT22;40769;51.512;5.494;2023-07-02T08:41:27;24.40;99.90
13808;DHT22;40769;51.512;5.494;2023-07-02T08:43:55;24.40;99.90
13808;DHT22;40769;51.512;5.494;2023-07-02T08:46:21;24.30;99.90
13808;DHT22;40769;51.512;5.494;2023-07-02T08:48:47;24.30;99.90
13808;DHT22;40769;51.512;5.494;2023-07-02T08:51:13;24.10;99.90
13808;DHT22;40769;51.512;5.494;2023-07-02T08:53:39;24.10;99.90
13808;DHT22;40769;51.512;5.494;2023-07-02T08:56:04;24.10;99.90
13808;DHT22;40769;51.512;5.494;2023-07-02T08:58:30;24.20;99.90
13808;DHT22;40769;51.512;5.494;2023-07-02T09:01:08;24.30;99.90
13808;DHT22;40769;51.512;5.494;2023-07-02T09:03:35;24.40;99.90
13808;DHT22;40769;51.512;5.494;2023-07-02T09:06:11;24.60;99.90
13808;DHT22;40769;51.512;5.494;2023-07-02T09:08:37;24.70;99.90
13808;DHT22;40769;51.512;5.494;2023-07-02T09:11:15;24.80;99.90
13808;DHT22;40769;51.512;5.494;2023-07-02T09:13:53;25.00;99.90
13808;DHT22;40769;51.512;5.494;2023-07-02T09:16:28;25.10;99.90
13808;DHT22;40769;51.512;5.494;2023-07-02T09:19:06;25.20;99.90
13808;DHT22;40769;51.512;5.494;2023-07-02T09:21:47;25.40;99.90
13808;DHT22;40769;51.512;5.494;2023-07-02T09:29:12;25.90;99.90
13808;DHT22;40769;51.512;5.494;2023-07-02T09:31:48;25.90;99.90
13808;DHT22;40769;51.512;5.494;2023-07-02T09:34:14;25.90;99.90
13808;DHT22;40769;51.512;5.494;2023-07-02T09:36:40;25.90;99.90
13808;DHT22;40769;51.512;5.494;2023-07-02T09:39:19;26.10;99.90
13808;DHT22;40769;51.512;5.494;2023-07-02T09:41:48;26.30;99.90
13808;DHT22;40769;51.512;5.494;2023-07-02T09:44:16;26.50;99.90
13808;DHT22;40769;51.512;5.494;2023-07-02T09:46:48;26.80;99.90
13808;DHT22;40769;51.512;5.494;2023-07-02T09:49:17;26.90;99.90
13808;DHT22;40769;51.512;5.494;2023-07-02T09:51:44;27.10;99.90
13808;DHT22;40769;51.512;5.494;2023-07-02T09:54:12;27.10;99.90
13808;DHT22;40769;51.512;5.494;2023-07-02T09:56:39;27.10;99.90
13808;DHT22;40769;51.512;5.494;2023-07-02T09:59:05;27.10;99.90
13808;DHT22;40769;51.512;5.494;2023-07-02T10:01:31;27.10;99.90
13808;DHT22;40769;51.512;5.494;2023-07-02T10:03:57;27.00;99.90
13808;DHT22;40769;51.512;5.494;2023-07-02T10:06:22;26.90;99.90
13808;DHT22;40769;51.512;5.494;2023-07-02T10:08:55;26.80;99.90
13808;DHT22;40769;51.512;5.494;2023-07-02T10:11:32;26.70;99.90
13808;DHT22;40769;51.512;5.494;2023-07-02T10:13:58;26.50;99.90
13808;DHT22;40769;51.512;5.494;2023-07-02T10:16:24;26.40;99.90
13808;DHT22;40769;51.512;5.494;2023-07-02T10:18:53;26.40;99.90
13808;DHT22;40769;51.512;5.494;2023-07-02T10:21:19;26.30;99.90
13808;DHT22;40769;51.512;5.494;2023-07-02T10:23:44;26.30;99.90
13808;DHT22;40769;51.512;5.494;2023-07-02T10:26:17;26.20;99.90
13808;DHT22;40769;51.512;5.494;2023-07-02T10:28:58;26.00;99.90
13808;DHT22;40769;51.512;5.494;2023-07-02T10:31:24;25.90;99.90
13808;DHT22;40769;51.512;5.494;2023-07-02T10:33:50;25.80;99.90
13808;DHT22;40769;51.512;5.494;2023-07-02T10:36:21;25.80;99.90
13808;DHT22;40769;51.512;5.494;2023-07-02T10:38:47;25.80;99.90
13808;DHT22;40769;51.512;5.494;2023-07-02T10:41:26;25.80;99.90
13808;DHT22;40769;51.512;5.494;2023-07-02T10:43:52;25.80;99.90
13808;DHT22;40769;51.512;5.494;2023-07-02T10:46:21;26.00;99.90
13808;DHT22;40769;51.512;5.494;2023-07-02T10:48:57;26.20;99.90
13808;DHT22;40769;51.512;5.494;2023-07-02T10:51:23;26.40;99.90
13808;DHT22;40769;51.512;5.494;2023-07-02T10:54:02;26.50;99.90
13808;DHT22;40769;51.512;5.494;2023-07-02T10:56:30;26.50;99.90
13808;DHT22;40769;51.512;5.494;2023-07-02T10:58:57;26.50;99.90
13808;DHT22;40769;51.512;5.494;2023-07-02T11:06:22;26.50;99.90
13808;DHT22;40769;51.512;5.494;2023-07-02T11:08:48;26.50;99.90
13808;DHT22;40769;51.512;5.494;2023-07-02T11:11:13;26.50;99.90
13808;DHT22;40769;51.512;5.494;2023-07-02T11:13:46;26.50;99.90
13808;DHT22;40769;51.512;5.494;2023-07-02T11:16:26;26.60;99.90
13808;DHT22;40769;51.512;5.494;2023-07-02T11:19:08;26.80;99.90
13808;DHT22;40769;51.512;5.494;2023-07-02T11:21:37;27.00;99.90
13808;DHT22;40769;51.512;5.494;2023-07-02T11:24:05;27.30;99.90
13808;DHT22;40769;51.512;5.494;2023-07-02T11:26:40;27.50;99.90
13808;DHT22;40769;51.512;5.494;2023-07-02T11:29:18;27.60;99.90
13808;DHT22;40769;51.512;5.494;2023-07-02T11:31:44;27.60;99.90
13808;DHT22;40769;51.512;5.494;2023-07-02T11:34:18;27.50;99.90
13808;DHT22;40769;51.512;5.494;2023-07-02T11:36:44;27.30;99.90
13808;DHT22;40769;51.512;5.494;2023-07-02T11:39:10;27.10;99.90
13808;DHT22;40769;51.512;5.494;2023-07-02T11:41:38;27.00;99.90
13808;DHT22;40769;51.512;5.494;2023-07-02T11:44:03;26.90;99.90
13808;DHT22;40769;51.512;5.494;2023-07-02T11:46:29;26.80;99.90
13808;DHT22;40769;51.512;5.494;2023-07-02T11:48:55;26.90;99.90
13808;DHT22;40769;51.512;5.494;2023-07-02T11:51:21;26.90;99.90
13808;DHT22;40769;51.512;5.494;2023-07-02T11:53:46;26.90;99.90
13808;DHT22;40769;51.512;5.494;2023-07-02T11:56:12;26.80;99.90
13808;DHT22;40769;51.512;5.494;2023-07-02T11:58:39;26.80;99.90
13808;DHT22;40769;51.512;5.494;2023-07-02T12:01:05;26.70;99.90
13808;DHT22;40769;51.512;5.494;2023-07-02T12:03:30;26.70;99.90
13808;DHT22;40769;51.512;5.494;2023-07-02T12:05:56;26.80;99.90
13808;DHT22;40769;51.512;5.494;2023-07-02T12:08:25;26.90;99.90
13808;DHT22;40769;51.512;5.494;2023-07-02T12:10:51;27.00;99.90
13808;DHT22;40769;51.512;5.494;2023-07-02T12:13:16;27.20;99.90
13808;DHT22;40769;51.512;5.494;2023-07-02T12:15:42;27.30;99.90
13808;DHT22;40769;51.512;5.494;2023-07-02T12:18:09;27.50;99.90
13808;DHT22;40769;51.512;5.494;2023-07-02T12:20:35;27.70;99.90
13808;DHT22;40769;51.512;5.494;2023-07-02T12:23:03;27.80;99.90
13808;DHT22;40769;51.512;5.494;2023-07-02T12:25:29;28.00;99.90
13808;DHT22;40769;51.512;5.494;2023-07-02T12:27:55;27.90;99.90
13808;DHT22;40769;51.512;5.494;2023-07-02T12:30:21;27.90;99.90
13808;DHT22;40769;51.512;5.494;2023-07-02T12:32:46;27.80;99.60
13808;DHT22;40769;51.512;5.494;2023-07-02T12:35:12;27.60;99.70
13808;DHT22;40769;51.512;5.494;2023-07-02T12:37:45;27.50;99.90
13808;DHT22;40769;51.512;5.494;2023-07-02T12:40:11;27.50;96.70
13808;DHT22;40769;51.512;5.494;2023-07-02T12:42:37;27.50;98.70
13808;DHT22;40769;51.512;5.494;2023-07-02T12:45:04;27.50;99.10
13808;DHT22;40769;51.512;5.494;2023-07-02T12:47:30;27.60;98.30
13808;DHT22;40769;51.512;5.494;2023-07-02T12:49:56;27.80;97.70
13808;DHT22;40769;51.512;5.494;2023-07-02T12:52:22;27.80;97.30
13808;DHT22;40769;51.512;5.494;2023-07-02T12:54:47;27.90;97.10
13808;DHT22;40769;51.512;5.494;2023-07-02T12:57:13;27.90;96.40
13808;DHT22;40769;51.512;5.494;2023-07-02T12:59:39;28.00;97.40
13808;DHT22;40769;51.512;5.494;2023-07-02T13:02:09;28.10;96.20
13808;DHT22;40769;51.512;5.494;2023-07-02T13:04:35;28.20;91.80
13808;DHT22;40769;51.512;5.494;2023-07-02T13:07:01;28.20;94.80
13808;DHT22;40769;51.512;5.494;2023-07-02T13:09:26;28.20;95.30
13808;DHT22;40769;51.512;5.494;2023-07-02T13:11:52;28.30;95.40
13808;DHT22;40769;51.512;5.494;2023-07-02T13:14:18;28.30;95.00
13808;DHT22;40769;51.512;5.494;2023-07-02T13:16:43;28.30;93.50
13808;DHT22;40769;51.512;5.494;2023-07-02T13:19:09;28.30;91.80
13808;DHT22;40769;51.512;5.494;2023-07-02T13:21:36;28.20;91.70
13808;DHT22;40769;51.512;5.494;2023-07-02T13:24:02;28.20;92.00
13808;DHT22;40769;51.512;5.494;2023-07-02T13:26:28;28.10;93.00
13808;DHT22;40769;51.512;5.494;2023-07-02T13:28:54;28.20;93.90
13808;DHT22;40769;51.512;5.494;2023-07-02T13:31:19;28.20;94.10
13808;DHT22;40769;51.512;5.494;2023-07-02T13:33:45;28.40;93.60
13808;DHT22;40769;51.512;5.494;2023-07-02T13:36:14;28.50;94.40
13808;DHT22;40769;51.512;5.494;2023-07-02T13:38:40;28.70;93.70
13808;DHT22;40769;51.512;5.494;2023-07-02T13:41:06;28.90;92.70
13808;DHT22;40769;51.512;5.494;2023-07-02T13:43:34;28.90;91.30
13808;DHT22;40769;51.512;5.494;2023-07-02T13:45:59;28.80;89.60
13808;DHT22;40769;51.512;5.494;2023-07-02T13:48:25;28.80;91.90
13808;DHT22;40769;51.512;5.494;2023-07-02T13:50:51;28.90;92.10
13808;DHT22;40769;51.512;5.494;2023-07-02T13:53:16;28.90;90.60
13808;DHT22;40769;51.512;5.494;2023-07-02T13:55:42;28.90;90.90
13808;DHT22;40769;51.512;5.494;2023-07-02T13:58:08;28.90;90.40
13808;DHT22;40769;51.512;5.494;2023-07-02T14:00:33;28.90;91.20
13808;DHT22;40769;51.512;5.494;2023-07-02T14:02:59;28.90;90.80
13808;DHT22;40769;51.512;5.494;2023-07-02T14:05:31;28.80;91.30
13808;DHT22;40769;51.512;5.494;2023-07-02T14:07:57;28.80;83.70
13808;DHT22;40769;51.512;5.494;2023-07-02T14:10:22;28.90;91.60
13808;DHT22;40769;51.512;5.494;2023-07-02T14:12:48;29.10;91.90
13808;DHT22;40769;51.512;5.494;2023-07-02T14:15:14;29.20;90.70
13808;DHT22;40769;51.512;5.494;2023-07-02T14:17:40;29.30;90.00
13808;DHT22;40769;51.512;5.494;2023-07-02T14:20:07;29.40;89.70
13808;DHT22;40769;51.512;5.494;2023-07-02T14:22:34;29.20;86.70
13808;DHT22;40769;51.512;5.494;2023-07-02T14:24:59;29.50;90.00
13808;DHT22;40769;51.512;5.494;2023-07-02T14:27:25;29.60;89.40
13808;DHT22;40769;51.512;5.494;2023-07-02T14:29:51;29.70;89.00
13808;DHT22;40769;51.512;5.494;2023-07-02T14:32:16;29.70;90.40
13808;DHT22;40769;51.512;5.494;2023-07-02T14:34:42;29.70;89.60
13808;DHT22;40769;51.512;5.494;2023-07-02T14:37:08;29.80;90.50
13808;DHT22;40769;51.512;5.494;2023-07-02T14:39:34;29.90;87.40
13808;DHT22;40769;51.512;5.494;2023-07-02T14:41:59;29.90;88.90
13808;DHT22;40769;51.512;5.494;2023-07-02T14:44:25;29.90;87.60
13808;DHT22;40769;51.512;5.494;2023-07-02T14:46:51;29.80;86.70
13808;DHT22;40769;51.512;5.494;2023-07-02T14:49:17;29.70;87.20
13808;DHT22;40769;51.512;5.494;2023-07-02T14:51:43;29.50;87.70
13808;DHT22;40769;51.512;5.494;2023-07-02T14:54:10;29.40;89.80
13808;DHT22;40769;51.512;5.494;2023-07-02T14:56:35;29.40;88.40
13808;DHT22;40769;51.512;5.494;2023-07-02T14:59:03;29.40;88.90
13808;DHT22;40769;51.512;5.494;2023-07-02T15:01:32;29.40;86.20
13808;DHT22;40769;51.512;5.494;2023-07-02T15:03:58;29.40;88.70
13808;DHT22;40769;51.512;5.494;2023-07-02T15:06:24;29.50;88.50
13808;DHT22;40769;51.512;5.494;2023-07-02T15:08:50;29.60;89.20
13808;DHT22;40769;51.512;5.494;2023-07-02T15:11:17;29.80;88.90
13808;DHT22;40769;51.512;5.494;2023-07-02T15:13:43;29.90;88.10
13808;DHT22;40769;51.512;5.494;2023-07-02T15:16:10;30.00;87.50
13808;DHT22;40769;51.512;5.494;2023-07-02T15:18:37;30.10;87.30
13808;DHT22;40769;51.512;5.494;2023-07-02T15:21:03;30.10;87.50
13808;DHT22;40769;51.512;5.494;2023-07-02T15:23:30;30.10;87.10
13808;DHT22;40769;51.512;5.494;2023-07-02T15:25:59;30.00;85.80
13808;DHT22;40769;51.512;5.494;2023-07-02T15:28:26;29.90;84.60
13808;DHT22;40769;51.512;5.494;2023-07-02T15:30:53;29.80;85.30
13808;DHT22;40769;51.512;5.494;2023-07-02T15:33:18;29.70;85.20
13808;DHT22;40769;51.512;5.494;2023-07-02T15:35:44;29.60;83.60
13808;DHT22;40769;51.512;5.494;2023-07-02T15:38:26;29.50;83.70